Time;durP1;ratioP1;P1;durP2;ratioP2;P2;SDS_P1;SDS_P2;PMS_P1;PMS_P2;Temp;Humidity;BMP_temperature;BMP_pressure;BME280_temperature;BME280_humidity;BME280_pressure;Samples;Min_cycle;Max_cycle;Signal;HPM_P1;HPM_P2
2022/06/20 00:01:26;;;;;;;5.00;1.55;;;13.30;99.90;;;;;;5981623;23;20014;-87
2022/06/20 00:18:21;;;;;;;3.28;1.70;;;13.30;99.90;;;;;;5977502;23;20037;-87
2022/06/20 00:20:50;;;;;;;7.68;1.85;;;13.20;99.90;;;;;;6019263;23;20369;-88
2022/06/20 00:23:18;;;;;;;6.28;1.67;;;13.30;99.90;;;;;;6018482;23;20050;-87
2022/06/20 00:26:00;;;;;;;8.27;2.03;;;13.30;99.90;;;;;;5995551;23;20015;-89
2022/06/20 00:28:53;;;;;;;6.13;1.63;;;13.30;99.90;;;;;;6119516;23;20524;-88
2022/06/20 00:31:39;;;;;;;5.60;1.30;;;13.80;99.90;;;;;;6127262;23;20017;-88
2022/06/20 00:34:13;;;;;;;6.90;1.45;;;13.90;99.90;;;;;;6107369;23;20390;-89
2022/06/20 00:36:42;;;;;;;5.53;1.83;;;13.20;99.90;;;;;;6105926;23;20450;-89
2022/06/20 00:39:24;;;;;;;5.00;1.48;;;13.30;99.90;;;;;;6106460;23;20014;-88
2022/06/20 00:41:53;;;;;;;4.60;1.27;;;13.20;99.90;;;;;;6131560;23;20387;-88
2022/06/20 00:45:12;;;;;;;3.80;1.17;;;13.20;99.90;;;;;;6131471;23;20014;-89
2022/06/20 00:48:23;;;;;;;7.13;1.58;;;13.20;99.90;;;;;;6097677;23;20014;-89
2022/06/20 00:51:22;;;;;;;6.65;2.13;;;13.20;99.90;;;;;;6081442;23;20030;-88
2022/06/20 00:54:41;;;;;;;7.32;2.53;;;12.60;99.90;;;;;;6065918;23;20018;-88
2022/06/20 01:04:58;;;;;;;5.43;1.55;;;12.40;99.90;;;;;;5957183;24;20020;-88
2022/06/20 01:12:16;;;;;;;4.78;1.50;;;12.90;99.90;;;;;;5953838;24;20023;-88
2022/06/20 02:28:19;;;;;;;8.65;2.08;;;11.60;99.90;;;;;;6153724;23;20013;-88
2022/06/20 02:30:48;;;;;;;6.65;1.95;;;11.60;99.90;;;;;;6109900;23;20018;-89
2022/06/20 02:33:33;;;;;;;8.65;2.10;;;11.50;99.90;;;;;;6107977;23;20043;-89
2022/06/20 02:36:02;;;;;;;3.97;1.63;;;11.40;99.90;;;;;;6109764;23;20100;-89
2022/06/20 02:38:46;;;;;;;4.20;1.50;;;11.40;99.90;;;;;;6108025;23;20019;-88
2022/06/20 03:05:18;;;;;;;;;;;;;;;;;;;;;
2022/06/20 04:31:32;;;;;;;5.95;2.78;;;12.30;99.90;;;;;;6024645;23;20058;-87
2022/06/20 04:34:21;;;;;;;6.97;2.95;;;12.60;99.90;;;;;;6110289;23;20393;-87
2022/06/20 04:36:56;;;;;;;6.38;2.60;;;12.70;99.90;;;;;;6136329;23;20016;-87
2022/06/20 04:39:44;;;;;;;7.05;2.85;;;12.80;99.90;;;;;;6163690;23;20393;-86
2022/06/20 04:42:23;;;;;;;9.85;3.55;;;12.70;99.90;;;;;;6137555;23;20032;-87
2022/06/20 04:44:58;;;;;;;7.93;2.80;;;12.80;99.90;;;;;;6135678;23;20052;-88
2022/06/20 04:47:41;;;;;;;8.77;3.70;;;12.80;99.90;;;;;;6160719;23;20099;-88
2022/06/20 04:50:19;;;;;;;9.40;3.25;;;12.80;99.90;;;;;;6160438;23;20040;-87
2022/06/20 04:52:53;;;;;;;7.65;2.65;;;12.80;99.90;;;;;;6160790;23;20450;-87
2022/06/20 04:55:35;;;;;;;7.57;2.67;;;12.80;99.90;;;;;;6161010;23;20088;-86
2022/06/20 04:58:19;;;;;;;6.32;2.70;;;12.80;99.90;;;;;;6160951;23;20089;-87
2022/06/20 05:01:02;;;;;;;;;;;;;;;;;;;;;
2022/06/20 05:03:37;;;;;;;9.18;3.10;;;12.80;99.90;;;;;;6185408;23;20017;-86
2022/06/20 05:06:15;;;;;;;7.72;2.88;;;12.70;99.90;;;;;;6160904;23;20013;-89
2022/06/20 05:08:50;;;;;;;11.00;3.30;;;12.70;99.90;;;;;;6159369;23;20024;-89
2022/06/20 05:11:33;;;;;;;10.07;3.85;;;12.30;99.90;;;;;;6160998;23;20023;-87
2022/06/20 05:14:20;;;;;;;8.82;3.20;;;12.90;99.90;;;;;;6160531;23;20045;-88
2022/06/20 05:16:52;;;;;;;6.78;2.72;;;12.90;99.90;;;;;;6159774;23;20343;-88
2022/06/20 05:19:24;;;;;;;5.45;2.97;;;13.20;99.90;;;;;;6160495;23;20048;-88
2022/06/20 05:21:56;;;;;;;10.18;3.47;;;12.90;99.90;;;;;;6160396;23;20099;-89
2022/06/20 05:24:30;;;;;;;8.60;3.08;;;13.10;99.90;;;;;;6160187;23;20396;-88
2022/06/20 05:26:58;;;;;;;6.70;3.10;;;13.10;99.90;;;;;;6160514;23;20442;-88
2022/06/20 05:29:35;;;;;;;7.43;3.13;;;13.30;99.90;;;;;;6185861;23;20358;-88
2022/06/20 05:32:08;;;;;;;6.50;3.38;;;13.30;99.90;;;;;;6165896;23;20493;-88
2022/06/20 05:34:41;;;;;;;9.80;3.10;;;13.30;99.90;;;;;;6173199;23;20016;-87
2022/06/20 05:37:09;;;;;;;9.48;3.50;;;13.30;99.90;;;;;;6175654;23;20024;-87
2022/06/20 05:39:56;;;;;;;10.82;3.63;;;13.50;99.90;;;;;;6171336;23;20013;-89
2022/06/20 05:42:22;;;;;;;7.38;3.20;;;13.70;99.90;;;;;;6166465;23;20023;-87
2022/06/20 05:44:48;;;;;;;9.10;3.55;;;13.90;99.90;;;;;;6161121;23;20016;-89
2022/06/20 05:47:24;;;;;;;5.95;3.20;;;14.00;99.90;;;;;;6164629;23;20074;-89
2022/06/20 05:50:15;;;;;;;8.27;3.15;;;14.00;99.90;;;;;;6165354;23;20067;-88
2022/06/20 05:52:47;;;;;;;9.10;3.60;;;13.90;99.90;;;;;;6190549;23;20068;-89
2022/06/20 05:55:42;;;;;;;9.90;3.42;;;14.10;99.90;;;;;;6166139;23;20009;-89
2022/06/20 05:58:15;;;;;;;7.43;3.42;;;14.00;99.90;;;;;;6159763;23;20012;-89
2022/06/20 06:00:42;;;;;;;7.50;3.42;;;13.90;99.90;;;;;;6165678;23;20070;-89
2022/06/20 06:03:34;;;;;;;9.88;3.78;;;13.80;99.90;;;;;;6167779;23;20048;-91
2022/06/20 06:06:22;;;;;;;7.80;3.50;;;13.20;99.90;;;;;;6165282;23;20013;-87
2022/06/20 06:09:06;;;;;;;11.35;4.00;;;14.00;99.90;;;;;;6164728;23;20099;-88
2022/06/20 06:11:39;;;;;;;8.13;3.05;;;14.20;99.90;;;;;;6166634;23;20023;-89
2022/06/20 06:14:31;;;;;;;7.18;3.20;;;14.20;99.90;;;;;;6187428;23;20052;-90
2022/06/20 06:17:10;;;;;;;9.63;3.45;;;14.40;99.90;;;;;;6186853;23;20341;-88
2022/06/20 06:19:51;;;;;;;7.63;3.30;;;14.50;99.90;;;;;;6164873;23;20516;-91
2022/06/20 06:22:27;;;;;;;7.88;3.20;;;14.50;99.90;;;;;;6167211;23;20020;-87
2022/06/20 06:24:58;;;;;;;9.13;3.20;;;14.60;99.90;;;;;;6164289;23;20078;-90
2022/06/20 06:27:29;;;;;;;8.65;3.38;;;14.70;99.90;;;;;;6165323;23;20012;-88
2022/06/20 06:30:20;;;;;;;10.20;4.13;;;14.90;99.90;;;;;;6164659;23;20095;-92
2022/06/20 06:33:12;;;;;;;9.75;3.17;;;15.20;99.90;;;;;;6190742;23;20453;-91
2022/06/20 06:35:41;;;;;;;5.90;2.90;;;15.40;99.90;;;;;;6112103;23;20009;-89
2022/06/20 06:38:33;;;;;;;9.10;2.88;;;15.40;99.90;;;;;;6165510;23;20023;-90
2022/06/20 06:41:06;;;;;;;8.52;3.08;;;15.70;99.90;;;;;;6165704;23;20020;-90
2022/06/20 06:43:49;;;;;;;6.53;2.42;;;15.50;99.90;;;;;;6165780;23;20435;-89
2022/06/20 06:46:36;;;;;;;7.00;2.53;;;14.90;99.90;;;;;;6165172;23;20095;-89
2022/06/20 06:49:45;;;;;;;8.68;2.95;;;15.40;99.90;;;;;;6164846;23;20468;-92
2022/06/20 06:52:26;;;;;;;7.32;2.53;;;15.90;99.90;;;;;;6109947;23;20019;-88
2022/06/20 06:55:36;;;;;;;8.48;2.40;;;16.40;99.90;;;;;;6172489;23;20023;-88
2022/06/20 06:58:07;;;;;;;7.15;2.38;;;16.60;99.90;;;;;;6169652;23;20013;-89
2022/06/20 07:01:07;;;;;;;9.85;3.00;;;16.60;99.90;;;;;;6162737;23;20020;-90
2022/06/20 07:03:56;;;;;;;7.70;2.47;;;17.00;99.90;;;;;;6142945;23;20110;-87
2022/06/20 07:06:55;;;;;;;5.85;2.30;;;17.10;99.90;;;;;;6141028;23;20020;-92
2022/06/20 07:09:57;;;;;;;10.93;3.40;;;17.10;99.90;;;;;;6164916;23;20124;-88
2022/06/20 07:12:43;;;;;;;11.55;3.03;;;16.90;99.90;;;;;;6165069;23;20016;-89
2022/06/20 07:15:21;;;;;;;4.22;2.53;;;16.60;99.90;;;;;;6163525;23;20112;-91
2022/06/20 07:18:35;;;;;;;7.10;2.63;;;16.10;99.90;;;;;;6165981;23;20104;-88
2022/06/20 07:21:32;;;;;;;7.45;1.98;;;15.70;99.90;;;;;;6161524;23;20013;-90
2022/06/20 07:24:40;;;;;;;5.03;2.08;;;15.50;99.90;;;;;;6164550;23;20096;-91
2022/06/20 07:27:36;;;;;;;7.13;2.47;;;15.30;99.90;;;;;;6049798;23;20018;-91
2022/06/20 07:30:15;;;;;;;6.22;2.45;;;15.60;99.90;;;;;;6071663;23;20057;-88
2022/06/20 07:32:52;;;;;;;8.43;2.33;;;16.10;99.90;;;;;;6045940;23;20475;-89
2022/06/20 07:35:52;;;;;;;7.45;3.10;;;16.60;99.90;;;;;;6127608;23;20012;-92
2022/06/20 07:38:50;;;;;;;4.85;2.20;;;16.90;99.90;;;;;;6165195;23;20012;-89
2022/06/20 07:42:03;;;;;;;6.15;2.42;;;16.40;99.90;;;;;;6163654;23;20009;-91
2022/06/20 07:44:49;;;;;;;8.32;2.30;;;16.00;99.90;;;;;;6046121;23;20104;-88
2022/06/20 07:47:27;;;;;;;5.07;2.17;;;15.60;99.90;;;;;;6046791;23;20021;-89
2022/06/20 07:50:04;;;;;;;8.45;2.42;;;15.50;99.90;;;;;;6153143;23;20017;-88
2022/06/20 07:52:44;;;;;;;5.03;1.80;;;15.90;99.90;;;;;;6165124;23;20024;-90
2022/06/20 07:55:49;;;;;;;4.03;1.80;;;16.30;99.90;;;;;;6163793;23;20012;-90
2022/06/20 08:02:42;;;;;;;5.90;1.83;;;17.20;99.90;;;;;;6052890;23;19913;-88
2022/06/20 08:05:51;;;;;;;3.45;1.60;;;16.40;99.90;;;;;;6188797;23;20013;-88
2022/06/20 08:08:47;;;;;;;3.70;1.50;;;15.90;99.90;;;;;;6165097;23;20020;-87
2022/06/20 08:11:40;;;;;;;4.45;1.67;;;16.50;99.90;;;;;;6165441;23;20017;-86
2022/06/20 08:14:26;;;;;;;2.15;1.20;;;16.60;99.90;;;;;;6164623;23;20024;-88
2022/06/20 08:17:34;;;;;;;3.47;1.50;;;17.10;99.90;;;;;;6166447;23;20015;-91
2022/06/20 08:20:06;;;;;;;3.38;1.40;;;16.90;99.90;;;;;;6166073;23;20453;-90
2022/06/20 08:22:39;;;;;;;8.10;2.05;;;16.30;99.90;;;;;;6141820;23;20016;-87
2022/06/20 08:25:22;;;;;;;4.80;2.63;;;17.50;99.90;;;;;;6166901;23;20055;-89
2022/06/20 08:28:26;;;;;;;4.85;1.65;;;17.30;99.90;;;;;;6166805;23;20021;-91
2022/06/20 08:31:18;;;;;;;4.50;2.13;;;17.30;99.90;;;;;;6180911;23;20021;-89
2022/06/20 08:37:28;;;;;;;5.28;1.73;;;16.70;99.90;;;;;;6071621;23;20121;-89
2022/06/20 08:44:25;;;;;;;4.28;1.70;;;15.80;99.90;;;;;;5959884;24;20042;-90
2022/06/20 08:47:34;;;;;;;1.60;1.35;;;17.30;99.90;;;;;;5930937;24;20016;-90
2022/06/20 08:50:51;;;;;;;4.18;1.42;;;17.40;99.90;;;;;;6044833;23;20169;-90
2022/06/20 08:54:06;;;;;;;4.93;2.00;;;16.70;99.90;;;;;;6080546;23;20467;-90
2022/06/20 08:56:59;;;;;;;6.93;2.00;;;16.60;99.90;;;;;;6165951;23;20369;-88
2022/06/20 08:59:46;;;;;;;4.28;1.95;;;17.40;99.90;;;;;;6166087;23;20044;-91
2022/06/20 09:06:15;;;;;;;3.65;1.70;;;17.20;99.90;;;;;;6131864;23;20035;-90
2022/06/20 09:13:11;;;;;;;2.83;1.70;;;15.90;99.90;;;;;;6101409;23;20026;-86
2022/06/20 09:23:12;;;;;;;4.78;1.70;;;18.40;99.90;;;;;;6097428;23;20033;-90
2022/06/20 09:30:39;;;;;;;3.42;1.33;;;17.70;99.90;;;;;;6035393;23;20428;-88
2022/06/20 09:44:35;;;;;;;2.92;1.20;;;18.70;99.90;;;;;;6100585;23;20014;-89
2022/06/20 09:47:38;;;;;;;2.42;1.40;;;19.50;99.90;;;;;;6119807;23;20013;-91
2022/06/20 09:50:52;;;;;;;1.40;0.98;;;19.70;99.90;;;;;;6160787;23;20334;-89
2022/06/20 10:04:39;;;;;;;4.05;1.50;;;18.00;99.90;;;;;;5986235;23;20024;-90
2022/06/20 10:07:51;;;;;;;2.42;1.35;;;18.80;99.90;;;;;;6004185;23;20947;-90
2022/06/20 10:10:43;;;;;;;4.63;1.48;;;18.60;99.90;;;;;;6071599;23;20101;-89
2022/06/20 10:28:40;;;;;;;2.63;1.42;;;18.90;99.90;;;;;;6066228;23;20026;-90
2022/06/20 10:32:00;;;;;;;5.18;1.42;;;19.20;99.90;;;;;;5980758;23;20019;-90
2022/06/20 10:34:53;;;;;;;2.97;1.27;;;18.60;99.90;;;;;;5962537;23;20071;-88
2022/06/20 10:38:14;;;;;;;;;;;;;;;;;;;;;
2022/06/20 10:41:09;;;;;;;3.67;1.35;;;18.20;99.90;;;;;;6069424;23;20026;-87
2022/06/20 10:47:34;;;;;;;5.03;2.20;;;17.60;99.90;;;;;;6052531;23;19968;-90
2022/06/20 11:05:40;;;;;;;6.20;1.50;;;19.40;99.90;;;;;;6037534;23;20018;-88
2022/06/20 11:16:07;;;;;;;2.63;1.17;;;18.90;99.90;;;;;;5952801;24;20115;-90
2022/06/20 11:23:16;;;;;;;3.38;1.65;;;18.90;99.90;;;;;;5952947;24;20061;-90
2022/06/20 11:50:33;;;;;;;4.60;1.70;;;17.90;99.90;;;;;;5954136;24;20015;-88
2022/06/20 11:53:47;;;;;;;2.88;1.48;;;18.20;99.90;;;;;;6055309;23;20019;-89
2022/06/20 11:57:04;;;;;;;3.55;1.35;;;19.10;99.90;;;;;;6093169;23;20021;-91
2022/06/20 12:00:22;;;;;;;3.85;1.60;;;18.40;99.90;;;;;;6072130;23;20347;-90
2022/06/20 12:06:54;;;;;;;4.90;1.60;;;19.60;99.90;;;;;;6096182;23;20021;-89
2022/06/20 12:09:59;;;;;;;5.30;1.92;;;18.40;99.90;;;;;;6073321;23;20381;-90
2022/06/20 12:12:47;;;;;;;5.28;2.00;;;17.30;99.90;;;;;;6072115;23;20014;-89
2022/06/20 12:15:34;;;;;;;4.40;2.28;;;17.50;99.90;;;;;;6072878;23;20026;-89
2022/06/20 12:18:23;;;;;;;3.90;1.83;;;17.50;99.90;;;;;;6071661;23;20020;-90
2022/06/20 12:24:48;;;;;;;3.58;1.63;;;18.10;99.90;;;;;;6106552;23;20018;-91
2022/06/20 12:27:29;;;;;;;2.15;1.30;;;18.20;99.90;;;;;;6107548;23;20272;-89
2022/06/20 12:30:22;;;;;;;2.05;1.38;;;18.00;99.90;;;;;;6107820;23;20446;-89
2022/06/20 12:32:55;;;;;;;2.67;1.58;;;18.50;99.90;;;;;;6108267;23;20061;-90
2022/06/20 12:35:36;;;;;;;2.65;1.40;;;19.30;99.90;;;;;;6139827;23;20017;-89
2022/06/20 12:38:25;;;;;;;3.53;1.50;;;19.30;99.90;;;;;;6114222;23;20048;-90
2022/06/20 12:44:39;;;;;;;3.83;1.60;;;18.10;99.90;;;;;;6097698;23;20057;-91
2022/06/20 12:48:00;;;;;;;4.05;1.77;;;18.50;99.90;;;;;;6048597;23;20027;-89
2022/06/20 12:50:59;;;;;;;4.57;1.80;;;17.80;99.90;;;;;;5986960;23;20022;-89
2022/06/20 13:01:21;;;;;;;3.33;1.65;;;18.60;99.90;;;;;;6096964;23;20070;-91
2022/06/20 13:04:32;;;;;;;5.07;1.65;;;19.20;99.90;;;;;;6048199;23;20053;-90
2022/06/20 13:07:23;;;;;;;2.60;1.70;;;18.50;99.90;;;;;;6073011;23;20105;-89
2022/06/20 13:10:01;;;;;;;3.10;1.73;;;17.70;99.90;;;;;;6048289;23;20018;-90
2022/06/20 13:13:15;;;;;;;6.28;1.95;;;17.20;99.90;;;;;;6047885;23;20014;-88
2022/06/20 13:15:50;;;;;;;6.65;2.10;;;17.40;99.90;;;;;;6092506;23;20064;-89
2022/06/20 13:22:10;;;;;;;3.40;1.60;;;18.00;99.90;;;;;;6131223;23;20056;-88
2022/06/20 13:25:05;;;;;;;3.85;1.75;;;16.80;99.90;;;;;;6107190;23;20338;-89
2022/06/20 13:27:53;;;;;;;3.20;1.77;;;16.90;99.90;;;;;;6108738;23;20115;-90
2022/06/20 13:31:01;;;;;;;3.45;1.80;;;17.60;99.90;;;;;;6107109;23;20014;-90
2022/06/20 13:34:18;;;;;;;2.40;1.55;;;17.80;99.90;;;;;;6107050;23;20553;-87
2022/06/20 13:38:00;;;;;;;2.58;1.70;;;17.30;99.90;;;;;;6066998;23;20041;-89
2022/06/20 13:40:45;;;;;;;7.15;1.90;;;16.80;99.90;;;;;;6019570;23;20023;-90
2022/06/20 13:43:58;;;;;;;3.58;1.75;;;17.30;99.90;;;;;;6035281;23;20110;-90
2022/06/20 13:46:56;;;;;;;3.47;1.83;;;17.00;99.90;;;;;;6042866;23;20098;-89
2022/06/20 13:50:01;;;;;;;4.80;2.15;;;17.20;99.90;;;;;;6044763;23;20019;-91
2022/06/20 13:52:59;;;;;;;4.97;1.98;;;17.60;99.90;;;;;;6047252;23;20011;-89
2022/06/20 13:55:59;;;;;;;2.35;1.60;;;17.10;99.90;;;;;;6155281;23;20024;-90
2022/06/20 14:02:47;;;;;;;4.80;1.80;;;16.40;99.90;;;;;;6070239;23;20087;-89
2022/06/20 14:05:42;;;;;;;4.97;1.83;;;16.60;99.90;;;;;;6046624;23;20466;-89
2022/06/20 14:08:17;;;;;;;4.18;2.08;;;16.50;99.90;;;;;;6163230;23;20008;-91
2022/06/20 14:11:24;;;;;;;4.97;2.15;;;16.50;99.90;;;;;;6186441;23;20469;-90
2022/06/20 14:18:03;;;;;;;4.07;1.88;;;16.30;99.90;;;;;;6190166;23;20020;-88
2022/06/20 14:25:22;;;;;;;4.30;2.03;;;16.20;99.90;;;;;;6011527;23;20445;-88
2022/06/20 14:28:53;;;;;;;6.22;2.00;;;15.70;99.90;;;;;;5967444;23;20114;-87
2022/06/20 14:31:33;;;;;;;5.32;2.20;;;15.80;99.90;;;;;;6057311;23;20022;-88
2022/06/20 14:38:07;;;;;;;6.50;2.08;;;17.40;99.90;;;;;;6037057;23;20063;-88
2022/06/20 14:41:39;;;;;;;6.30;2.13;;;17.10;99.90;;;;;;6054511;23;20023;-89
2022/06/20 14:44:29;;;;;;;6.45;2.00;;;16.80;99.90;;;;;;6100938;23;20018;-89
2022/06/20 14:48:05;;;;;;;2.95;2.10;;;16.80;99.90;;;;;;6082676;23;20476;-88
2022/06/20 14:51:28;;;;;;;5.47;2.00;;;16.40;99.90;;;;;;6016006;23;20019;-87
2022/06/20 14:54:13;;;;;;;7.07;2.20;;;16.60;99.90;;;;;;5921753;23;20019;-88
2022/06/20 15:05:01;;;;;;;10.43;2.60;;;15.40;99.90;;;;;;5896620;24;20477;-88
2022/06/20 15:20:03;;;;;;;4.38;2.13;;;17.20;99.90;;;;;;5925161;24;20047;-90
2022/06/20 15:26:28;;;;;;;7.75;2.35;;;16.30;99.90;;;;;;5890590;24;20088;-88
2022/06/20 15:29:27;;;;;;;4.40;2.13;;;17.00;99.90;;;;;;5909506;24;20038;-87
2022/06/20 15:32:34;;;;;;;6.22;2.42;;;17.40;99.90;;;;;;5932699;24;20020;-90
2022/06/20 15:36:08;;;;;;;;;;;;;;;;;;;;;
2022/06/20 15:43:07;;;;;;;5.57;2.40;;;17.30;99.90;;;;;;6036094;23;20027;-90
2022/06/20 15:46:02;;;;;;;4.80;2.15;;;18.00;99.90;;;;;;6092048;23;20072;-88
2022/06/20 15:49:04;;;;;;;7.97;2.38;;;18.00;99.90;;;;;;6106087;23;20017;-89
2022/06/20 15:52:11;;;;;;;6.07;2.50;;;17.70;99.90;;;;;;6087344;23;20022;-90
2022/06/20 15:59:05;;;;;;;6.00;2.20;;;17.70;99.90;;;;;;6159418;23;20016;-89
2022/06/20 16:01:37;;;;;;;6.03;2.28;;;16.90;99.90;;;;;;6118528;23;20041;-90
2022/06/20 16:04:50;;;;;;;7.10;2.75;;;16.70;99.90;;;;;;6118911;23;20017;-91
2022/06/20 16:08:22;;;;;;;5.80;2.47;;;16.00;99.90;;;;;;6130926;23;20112;-90
2022/06/20 16:11:28;;;;;;;4.90;1.95;;;16.60;99.90;;;;;;6123009;23;20014;-88
2022/06/20 16:18:07;;;;;;;4.22;2.03;;;16.80;99.90;;;;;;6159656;23;20462;-91
2022/06/20 16:21:37;;;;;;;5.13;2.25;;;16.50;99.90;;;;;;6106405;23;20390;-90
2022/06/20 16:25:10;;;;;;;4.43;1.83;;;17.80;99.90;;;;;;6096397;23;20049;-92
2022/06/20 16:30:59;;;;;;;3.60;1.80;;;17.00;99.90;;;;;;6059603;23;20018;-91
2022/06/20 16:37:55;;;;;;;6.20;1.83;;;16.50;99.90;;;;;;6126585;23;20135;-89
2022/06/20 16:44:18;;;;;;;5.18;1.55;;;15.70;99.90;;;;;;6124839;23;21243;-89
2022/06/20 16:47:33;;;;;;;3.63;1.25;;;15.80;99.90;;;;;;6097966;23;20024;-88
2022/06/20 16:50:39;;;;;;;4.03;1.48;;;16.10;99.90;;;;;;6039323;23;20014;-89
2022/06/20 17:12:22;;;;;;;5.63;1.40;;;17.00;99.90;;;;;;6021672;23;20023;-90
2022/06/20 17:15:29;;;;;;;2.80;0.98;;;17.00;99.90;;;;;;6101157;23;20102;-89
2022/06/20 17:37:37;;;;;;;2.60;1.10;;;16.10;99.90;;;;;;5843208;24;20038;-94
2022/06/20 19:23:53;;;;;;;6.00;1.73;;;14.80;99.90;;;;;;6221314;23;20021;-92
2022/06/20 19:26:55;;;;;;;8.02;1.70;;;14.70;99.90;;;;;;6186372;23;20005;-95
2022/06/20 19:33:32;;;;;;;8.00;1.65;;;14.10;99.90;;;;;;6103304;23;20028;-94
2022/06/20 19:36:12;;;;;;;5.97;2.08;;;14.70;99.90;;;;;;6169354;23;20020;-94
2022/06/20 19:42:58;;;;;;;8.43;1.98;;;14.50;99.90;;;;;;6088186;23;20556;-94
2022/06/20 19:45:57;;;;;;;8.05;2.40;;;14.50;99.90;;;;;;6191826;23;20039;-95
2022/06/20 19:48:44;;;;;;;8.07;1.65;;;14.40;99.90;;;;;;6190633;23;20007;-92
2022/06/20 19:51:37;;;;;;;7.00;1.95;;;14.30;99.90;;;;;;6190937;23;20019;-94
2022/06/20 19:58:23;;;;;;;7.35;2.08;;;14.20;99.90;;;;;;6238589;23;20291;-95
2022/06/20 20:01:17;;;;;;;10.38;1.67;;;14.20;99.90;;;;;;6186897;23;20025;-94
2022/06/20 20:07:52;;;;;;;5.03;1.70;;;14.00;99.90;;;;;;6240092;23;20024;-93
2022/06/20 20:10:25;;;;;;;7.53;1.70;;;13.80;99.90;;;;;;6187068;23;20019;-92
2022/06/20 20:12:55;;;;;;;7.85;1.55;;;12.90;99.90;;;;;;6184337;23;20012;-95
2022/06/20 20:15:47;;;;;;;6.25;1.60;;;13.70;99.90;;;;;;6190481;23;20001;-93
2022/06/20 20:22:03;;;;;;;7.13;2.17;;;13.10;99.90;;;;;;6241207;23;20039;-94
2022/06/20 20:24:34;;;;;;;6.50;1.60;;;13.50;99.90;;;;;;6191923;23;20071;-93
2022/06/20 20:27:41;;;;;;;5.72;1.75;;;12.80;99.90;;;;;;6239749;23;20026;-94
2022/06/20 20:30:45;;;;;;;8.48;1.95;;;13.40;99.90;;;;;;6212749;23;20001;-95
2022/06/20 20:34:02;;;;;;;10.88;2.30;;;13.40;99.90;;;;;;6219388;23;20052;-93
2022/06/20 20:36:57;;;;;;;6.75;1.67;;;13.20;99.90;;;;;;6100465;23;20021;-94
2022/06/20 20:47:24;;;;;;;7.32;1.80;;;12.90;99.90;;;;;;6231463;22;20051;-93
2022/06/20 20:50:32;;;;;;;8.93;2.50;;;12.80;99.90;;;;;;6185628;23;20016;-93
2022/06/20 20:53:14;;;;;;;5.10;1.67;;;12.40;99.90;;;;;;6187624;23;20020;-93
2022/06/20 20:55:50;;;;;;;9.27;2.10;;;12.70;99.90;;;;;;6186183;23;20020;-94
2022/06/20 20:58:27;;;;;;;7.55;2.40;;;12.60;99.90;;;;;;6189329;23;20013;-93
2022/06/20 21:01:00;;;;;;;11.35;1.88;;;12.40;99.90;;;;;;6188293;23;20048;-94
2022/06/20 21:03:38;;;;;;;10.35;2.10;;;12.60;99.90;;;;;;6190242;23;20016;-95
2022/06/20 21:06:47;;;;;;;8.85;2.13;;;13.40;99.90;;;;;;6192126;23;20007;-94
2022/06/20 21:40:10;;;;;;;11.07;2.03;;;12.30;99.90;;;;;;6201090;23;20028;-94
2022/06/20 21:42:39;;;;;;;13.98;3.33;;;12.20;99.90;;;;;;6178772;23;20001;-95
2022/06/20 21:45:38;;;;;;;7.18;1.80;;;11.70;99.90;;;;;;6175630;23;20032;-94
2022/06/20 21:48:19;;;;;;;5.50;2.03;;;12.10;99.90;;;;;;6180894;23;20013;-94
2022/06/20 21:51:18;;;;;;;6.85;2.10;;;12.20;99.90;;;;;;6184464;23;20013;-93
2022/06/20 21:53:47;;;;;;;5.88;1.88;;;12.20;99.90;;;;;;6189054;23;20021;-95
2022/06/20 21:56:28;;;;;;;11.48;2.65;;;12.20;99.90;;;;;;6180354;23;20017;-94
2022/06/20 21:59:22;;;;;;;7.07;2.10;;;12.20;99.90;;;;;;6178860;23;20016;-96
2022/06/20 22:05:17;;;;;;;6.63;2.00;;;12.10;99.90;;;;;;6154634;23;20087;-94
2022/06/20 22:07:53;;;;;;;6.68;2.13;;;12.00;99.90;;;;;;6111332;23;20016;-94
2022/06/20 22:10:31;;;;;;;9.23;2.92;;;11.90;99.90;;;;;;6171666;23;20040;-93
2022/06/20 22:13:01;;;;;;;11.48;2.50;;;11.90;99.90;;;;;;6166079;23;20095;-94
2022/06/20 22:15:32;;;;;;;8.23;2.22;;;11.80;99.90;;;;;;6168424;23;20343;-94
2022/06/20 22:17:58;;;;;;;9.68;2.10;;;11.80;99.90;;;;;;6167276;23;20462;-93
2022/06/20 22:20:28;;;;;;;7.22;1.90;;;11.70;99.90;;;;;;6165558;23;20013;-93
2022/06/20 22:22:56;;;;;;;6.32;1.90;;;11.80;99.90;;;;;;6173129;23;20470;-93
2022/06/20 22:25:43;;;;;;;8.80;1.92;;;11.80;99.90;;;;;;6169017;23;20034;-93
2022/06/20 22:28:33;;;;;;;6.90;2.15;;;11.90;99.90;;;;;;6169118;23;20457;-94
2022/06/20 22:31:47;;;;;;;7.13;2.10;;;11.90;99.90;;;;;;6169357;23;20374;-94
2022/06/20 22:34:20;;;;;;;7.97;2.20;;;11.90;99.90;;;;;;6169177;23;20355;-94
2022/06/20 22:36:51;;;;;;;4.30;1.77;;;12.00;99.90;;;;;;6178247;23;20051;-93
2022/06/20 22:39:21;;;;;;;6.22;1.73;;;12.00;99.90;;;;;;6149844;23;20056;-93
2022/06/20 22:41:49;;;;;;;7.57;2.30;;;12.30;99.90;;;;;;6180232;23;20059;-94
2022/06/20 22:44:18;;;;;;;7.38;2.25;;;12.20;99.90;;;;;;6179544;23;20021;-93
2022/06/20 22:47:02;;;;;;;9.38;2.30;;;12.20;99.90;;;;;;6182183;23;20017;-95
2022/06/20 22:49:38;;;;;;;6.93;1.88;;;12.20;99.90;;;;;;6181668;23;20046;-92
2022/06/20 22:52:22;;;;;;;9.55;2.00;;;12.30;99.90;;;;;;6181744;23;20024;-93
2022/06/20 22:55:19;;;;;;;7.20;2.13;;;12.40;99.90;;;;;;6173631;23;20012;-94
2022/06/20 22:58:01;;;;;;;11.48;2.55;;;12.60;99.90;;;;;;6148328;23;20013;-93
2022/06/20 23:00:35;;;;;;;6.80;1.95;;;12.60;99.90;;;;;;6170044;23;20077;-95
2022/06/20 23:03:07;;;;;;;8.23;1.88;;;12.60;99.90;;;;;;6174405;23;20016;-94
2022/06/20 23:05:34;;;;;;;5.68;1.85;;;12.70;99.90;;;;;;6166332;23;20074;-94
2022/06/20 23:08:00;;;;;;;5.15;2.45;;;12.70;99.90;;;;;;6168570;23;20016;-94
2022/06/20 23:10:26;;;;;;;5.00;1.65;;;12.60;99.90;;;;;;6142908;23;20020;-94
2022/06/20 23:12:54;;;;;;;5.40;1.92;;;12.60;99.90;;;;;;6163875;23;20095;-94
2022/06/20 23:15:22;;;;;;;5.35;1.80;;;12.50;99.90;;;;;;6171987;23;20020;-94
2022/06/20 23:20:34;;;;;;;5.13;1.88;;;12.30;99.90;;;;;;6188106;23;20067;-92
2022/06/20 23:23:01;;;;;;;5.65;1.67;;;12.30;99.90;;;;;;6139856;23;20047;-94
2022/06/20 23:25:30;;;;;;;5.25;1.88;;;12.30;99.90;;;;;;6117818;23;20020;-94
2022/06/20 23:27:57;;;;;;;5.88;1.98;;;12.20;99.90;;;;;;6166306;23;20070;-93
2022/06/20 23:30:25;;;;;;;4.88;2.00;;;12.10;99.90;;;;;;6166430;23;20012;-93
2022/06/20 23:32:52;;;;;;;6.03;1.85;;;12.00;99.90;;;;;;6166430;23;20447;-94
2022/06/20 23:35:22;;;;;;;7.25;2.05;;;11.90;99.90;;;;;;6117819;23;20019;-94
2022/06/20 23:37:54;;;;;;;5.82;1.70;;;11.90;99.90;;;;;;6166004;23;20012;-93
2022/06/20 23:40:25;;;;;;;7.15;2.03;;;11.80;99.90;;;;;;6165270;23;20031;-93
2022/06/20 23:42:51;;;;;;;4.25;1.65;;;11.70;99.90;;;;;;6167873;23;20067;-93
2022/06/20 23:45:21;;;;;;;8.65;1.95;;;11.70;99.90;;;;;;6167863;23;20071;-95
2022/06/20 23:47:47;;;;;;;7.78;1.83;;;11.70;99.90;;;;;;6171604;23;20067;-94
2022/06/20 23:50:15;;;;;;;4.68;2.00;;;11.60;99.90;;;;;;6157149;23;20017;-92
2022/06/20 23:52:41;;;;;;;7.50;2.30;;;11.60;99.90;;;;;;6168281;23;20040;-92
2022/06/20 23:55:08;;;;;;;8.18;1.92;;;11.60;99.90;;;;;;6145760;23;20040;-91
2022/06/20 23:57:36;;;;;;;7.50;2.42;;;11.70;99.90;;;;;;6141857;23;20040;-93
